sensor_id;sensor_type;location;lat;lon;timestamp;pressure;altitude;pressure_sealevel;temperature;humidity
41947;BME280;27638;42.184;24.848;2023-02-13T00:00:04;101812.44;;;5.24;59.59
41947;BME280;27638;42.184;24.848;2023-02-13T00:02:30;101817.00;;;5.20;59.78
41947;BME280;27638;42.184;24.848;2023-02-13T00:04:55;101818.25;;;5.30;59.25
41947;BME280;27638;42.184;24.848;2023-02-13T00:07:20;101820.91;;;5.63;58.60
41947;BME280;27638;42.184;24.848;2023-02-13T00:09:46;101817.25;;;5.83;57.36
41947;BME280;27638;42.184;24.848;2023-02-13T00:12:11;101817.53;;;5.94;57.33
41947;BME280;27638;42.184;24.848;2023-02-13T00:14:38;101829.31;;;5.70;57.37
41947;BME280;27638;42.184;24.848;2023-02-13T00:17:04;101822.78;;;5.61;58.03
41947;BME280;27638;42.184;24.848;2023-02-13T00:19:30;101824.47;;;5.62;57.97
41947;BME280;27638;42.184;24.848;2023-02-13T00:21:55;101830.78;;;5.75;58.03
41947;BME280;27638;42.184;24.848;2023-02-13T00:24:21;101838.03;;;5.88;57.77
41947;BME280;27638;42.184;24.848;2023-02-13T00:26:46;101829.81;;;5.43;59.39
41947;BME280;27638;42.184;24.848;2023-02-13T00:29:12;101835.84;;;5.45;58.70
41947;BME280;27638;42.184;24.848;2023-02-13T00:31:37;101838.31;;;5.49;59.28
41947;BME280;27638;42.184;24.848;2023-02-13T00:34:03;101838.25;;;5.50;59.58
41947;BME280;27638;42.184;24.848;2023-02-13T00:36:28;101835.31;;;5.39;59.33
41947;BME280;27638;42.184;24.848;2023-02-13T00:38:53;101837.69;;;5.43;59.98
41947;BME280;27638;42.184;24.848;2023-02-13T00:41:19;101843.34;;;5.36;60.34
41947;BME280;27638;42.184;24.848;2023-02-13T00:43:46;101836.50;;;5.14;61.79
41947;BME280;27638;42.184;24.848;2023-02-13T00:46:12;101823.75;;;5.07;62.54
41947;BME280;27638;42.184;24.848;2023-02-13T00:48:38;101825.75;;;4.85;62.81
41947;BME280;27638;42.184;24.848;2023-02-13T00:51:06;101825.44;;;4.91;63.07
41947;BME280;27638;42.184;24.848;2023-02-13T00:53:32;101832.16;;;4.96;62.93
41947;BME280;27638;42.184;24.848;2023-02-13T00:55:58;101831.66;;;4.71;63.83
41947;BME280;27638;42.184;24.848;2023-02-13T00:58:24;101829.38;;;4.82;63.25
41947;BME280;27638;42.184;24.848;2023-02-13T01:00:51;101833.09;;;4.59;64.78
41947;BME280;27638;42.184;24.848;2023-02-13T01:03:18;101837.84;;;4.70;64.36
41947;BME280;27638;42.184;24.848;2023-02-13T01:05:43;101835.63;;;4.79;63.43
41947;BME280;27638;42.184;24.848;2023-02-13T01:08:10;101838.03;;;4.84;63.17
41947;BME280;27638;42.184;24.848;2023-02-13T01:10:39;101841.28;;;5.06;62.31
41947;BME280;27638;42.184;24.848;2023-02-13T01:13:05;101836.00;;;5.25;61.96
41947;BME280;27638;42.184;24.848;2023-02-13T01:15:31;101838.31;;;5.31;62.32
41947;BME280;27638;42.184;24.848;2023-02-13T01:17:57;101830.91;;;5.22;62.40
41947;BME280;27638;42.184;24.848;2023-02-13T01:20:23;101839.91;;;4.99;62.62
41947;BME280;27638;42.184;24.848;2023-02-13T01:22:49;101834.91;;;4.76;63.58
41947;BME280;27638;42.184;24.848;2023-02-13T01:25:14;101840.00;;;4.43;65.18
41947;BME280;27638;42.184;24.848;2023-02-13T01:27:40;101840.13;;;4.40;65.58
41947;BME280;27638;42.184;24.848;2023-02-13T01:30:06;101836.09;;;4.52;64.67
41947;BME280;27638;42.184;24.848;2023-02-13T01:32:38;101835.75;;;4.76;64.27
41947;BME280;27638;42.184;24.848;2023-02-13T01:35:04;101838.03;;;4.84;63.91
41947;BME280;27638;42.184;24.848;2023-02-13T01:37:30;101839.41;;;4.91;63.57
41947;BME280;27638;42.184;24.848;2023-02-13T01:39:55;101840.19;;;4.93;62.76
41947;BME280;27638;42.184;24.848;2023-02-13T01:42:24;101839.34;;;4.93;62.66
41947;BME280;27638;42.184;24.848;2023-02-13T01:44:55;101844.75;;;4.90;62.47
41947;BME280;27638;42.184;24.848;2023-02-13T01:47:46;101847.81;;;4.80;62.55
41947;BME280;27638;42.184;24.848;2023-02-13T01:50:25;101844.72;;;4.72;62.32
41947;BME280;27638;42.184;24.848;2023-02-13T01:53:03;101850.34;;;4.46;62.60
41947;BME280;27638;42.184;24.848;2023-02-13T01:55:30;101853.88;;;4.45;63.12
41947;BME280;27638;42.184;24.848;2023-02-13T01:58:05;101848.22;;;4.35;63.57
41947;BME280;27638;42.184;24.848;2023-02-13T02:00:34;101856.59;;;4.43;63.09
41947;BME280;27638;42.184;24.848;2023-02-13T02:03:08;101859.00;;;4.48;63.10
41947;BME280;27638;42.184;24.848;2023-02-13T02:05:35;101849.13;;;4.53;62.43
41947;BME280;27638;42.184;24.848;2023-02-13T02:08:04;101861.25;;;4.56;62.74
41947;BME280;27638;42.184;24.848;2023-02-13T02:10:31;101863.66;;;4.60;62.27
41947;BME280;27638;42.184;24.848;2023-02-13T02:15:27;101856.31;;;4.86;61.29
41947;BME280;27638;42.184;24.848;2023-02-13T02:17:52;101857.78;;;4.91;60.50
41947;BME280;27638;42.184;24.848;2023-02-13T02:36:44;101880.19;;;4.43;62.32
41947;BME280;27638;42.184;24.848;2023-02-13T02:41:58;101895.72;;;4.29;63.01
41947;BME280;27638;42.184;24.848;2023-02-13T02:47:55;101893.16;;;4.07;63.71
41947;BME280;27638;42.184;24.848;2023-02-13T02:50:47;101901.53;;;4.15;62.90
41947;BME280;27638;42.184;24.848;2023-02-13T02:56:36;101899.66;;;3.99;63.28
41947;BME280;27638;42.184;24.848;2023-02-13T02:59:09;101903.00;;;4.02;62.69
41947;BME280;27638;42.184;24.848;2023-02-13T03:01:55;101905.38;;;3.88;62.91
41947;BME280;27638;42.184;24.848;2023-02-13T03:04:44;101908.97;;;3.85;63.52
41947;BME280;27638;42.184;24.848;2023-02-13T03:07:29;101913.44;;;3.83;63.41
41947;BME280;27638;42.184;24.848;2023-02-13T03:09:56;101916.31;;;3.98;62.90
41947;BME280;27638;42.184;24.848;2023-02-13T03:12:48;101908.25;;;4.02;62.49
41947;BME280;27638;42.184;24.848;2023-02-13T03:15:36;101910.09;;;4.00;62.53
41947;BME280;27638;42.184;24.848;2023-02-13T03:18:22;101918.09;;;3.97;62.62
41947;BME280;27638;42.184;24.848;2023-02-13T03:21:16;101915.13;;;4.05;62.69
41947;BME280;27638;42.184;24.848;2023-02-13T03:27:15;101916.47;;;4.34;60.71
41947;BME280;27638;42.184;24.848;2023-02-13T03:35:48;101925.94;;;4.18;60.12
41947;BME280;27638;42.184;24.848;2023-02-13T03:41:42;101923.31;;;4.18;60.65
41947;BME280;27638;42.184;24.848;2023-02-13T03:47:04;101919.97;;;3.94;63.14
41947;BME280;27638;42.184;24.848;2023-02-13T03:49:40;101908.06;;;3.46;64.48
41947;BME280;27638;42.184;24.848;2023-02-13T03:55:14;101916.22;;;3.38;65.06
41947;BME280;27638;42.184;24.848;2023-02-13T03:58:07;101921.97;;;3.26;65.54
41947;BME280;27638;42.184;24.848;2023-02-13T04:00:55;101918.06;;;3.36;65.03
41947;BME280;27638;42.184;24.848;2023-02-13T04:03:29;101921.94;;;3.48;64.56
41947;BME280;27638;42.184;24.848;2023-02-13T04:06:03;101930.84;;;3.64;63.86
41947;BME280;27638;42.184;24.848;2023-02-13T04:08:31;101926.03;;;3.33;64.33
41947;BME280;27638;42.184;24.848;2023-02-13T04:11:20;101934.84;;;3.52;64.18
41947;BME280;27638;42.184;24.848;2023-02-13T04:13:56;101930.66;;;3.69;62.87
41947;BME280;27638;42.184;24.848;2023-02-13T04:16:28;101929.63;;;3.73;61.99
41947;BME280;27638;42.184;24.848;2023-02-13T04:18:56;101925.16;;;3.75;61.87
41947;BME280;27638;42.184;24.848;2023-02-13T04:21:22;101925.28;;;3.92;61.67
41947;BME280;27638;42.184;24.848;2023-02-13T04:23:48;101931.78;;;4.04;61.27
41947;BME280;27638;42.184;24.848;2023-02-13T04:26:17;101932.50;;;4.07;60.98
41947;BME280;27638;42.184;24.848;2023-02-13T04:28:44;101926.31;;;4.08;60.74
41947;BME280;27638;42.184;24.848;2023-02-13T04:31:09;101923.78;;;4.07;61.02
41947;BME280;27638;42.184;24.848;2023-02-13T04:33:35;101926.66;;;4.01;61.00
41947;BME280;27638;42.184;24.848;2023-02-13T04:36:00;101924.56;;;3.89;60.92
41947;BME280;27638;42.184;24.848;2023-02-13T04:38:25;101936.88;;;3.87;61.87
41947;BME280;27638;42.184;24.848;2023-02-13T04:40:51;101934.94;;;3.92;61.60
41947;BME280;27638;42.184;24.848;2023-02-13T04:43:16;101945.34;;;3.93;61.38
41947;BME280;27638;42.184;24.848;2023-02-13T04:45:42;101950.78;;;3.89;61.26
41947;BME280;27638;42.184;24.848;2023-02-13T04:48:07;101939.56;;;3.85;61.64
41947;BME280;27638;42.184;24.848;2023-02-13T04:50:33;101938.53;;;3.89;61.55
41947;BME280;27638;42.184;24.848;2023-02-13T04:52:58;101930.81;;;3.86;61.47
41947;BME280;27638;42.184;24.848;2023-02-13T04:55:25;101929.41;;;3.77;61.73
41947;BME280;27638;42.184;24.848;2023-02-13T04:57:52;101941.34;;;3.64;62.18
41947;BME280;27638;42.184;24.848;2023-02-13T05:00:22;101934.59;;;3.59;62.39
41947;BME280;27638;42.184;24.848;2023-02-13T05:02:48;101927.97;;;3.50;63.54
41947;BME280;27638;42.184;24.848;2023-02-13T05:05:14;101937.28;;;3.57;62.58
41947;BME280;27638;42.184;24.848;2023-02-13T05:07:40;101936.22;;;3.61;62.53
41947;BME280;27638;42.184;24.848;2023-02-13T05:10:07;101939.56;;;3.65;61.25
41947;BME280;27638;42.184;24.848;2023-02-13T05:12:32;101944.81;;;3.65;61.21
41947;BME280;27638;42.184;24.848;2023-02-13T05:14:58;101951.09;;;3.61;61.04
41947;BME280;27638;42.184;24.848;2023-02-13T05:17:23;101950.31;;;3.59;61.24
41947;BME280;27638;42.184;24.848;2023-02-13T05:19:49;101961.88;;;3.53;61.53
41947;BME280;27638;42.184;24.848;2023-02-13T05:22:14;101955.25;;;3.44;61.60
41947;BME280;27638;42.184;24.848;2023-02-13T05:24:58;101958.44;;;3.31;62.07
41947;BME280;27638;42.184;24.848;2023-02-13T05:27:23;101966.41;;;3.28;62.84
41947;BME280;27638;42.184;24.848;2023-02-13T05:29:49;101964.34;;;3.36;62.94
41947;BME280;27638;42.184;24.848;2023-02-13T05:32:14;101968.47;;;3.41;62.35
41947;BME280;27638;42.184;24.848;2023-02-13T05:34:39;101976.94;;;3.26;62.55
41947;BME280;27638;42.184;24.848;2023-02-13T05:37:05;101974.53;;;2.98;63.97
41947;BME280;27638;42.184;24.848;2023-02-13T05:39:30;101980.47;;;2.80;64.52
41947;BME280;27638;42.184;24.848;2023-02-13T05:41:56;101982.25;;;3.01;64.11
41947;BME280;27638;42.184;24.848;2023-02-13T05:44:21;101991.66;;;3.07;63.72
41947;BME280;27638;42.184;24.848;2023-02-13T05:46:46;101993.28;;;3.09;63.61
41947;BME280;27638;42.184;24.848;2023-02-13T05:49:13;101999.47;;;3.30;63.05
41947;BME280;27638;42.184;24.848;2023-02-13T05:51:40;102002.88;;;3.32;62.71
41947;BME280;27638;42.184;24.848;2023-02-13T05:54:06;102003.69;;;3.34;62.48
41947;BME280;27638;42.184;24.848;2023-02-13T05:56:32;101999.00;;;3.42;61.60
41947;BME280;27638;42.184;24.848;2023-02-13T05:58:57;101984.06;;;3.44;61.10
41947;BME280;27638;42.184;24.848;2023-02-13T06:01:23;101993.97;;;3.58;60.36
41947;BME280;27638;42.184;24.848;2023-02-13T06:03:49;101996.34;;;3.64;60.19
41947;BME280;27638;42.184;24.848;2023-02-13T06:06:15;102004.94;;;3.68;60.44
41947;BME280;27638;42.184;24.848;2023-02-13T06:08:41;102008.94;;;3.76;60.50
41947;BME280;27638;42.184;24.848;2023-02-13T06:11:06;102003.00;;;3.93;59.64
41947;BME280;27638;42.184;24.848;2023-02-13T06:13:32;102008.91;;;3.98;59.74
41947;BME280;27638;42.184;24.848;2023-02-13T06:15:57;102003.31;;;3.85;59.81
41947;BME280;27638;42.184;24.848;2023-02-13T06:18:23;102013.97;;;4.03;59.95
41947;BME280;27638;42.184;24.848;2023-02-13T06:20:48;102020.81;;;3.85;60.14
41947;BME280;27638;42.184;24.848;2023-02-13T06:23:14;102016.34;;;3.67;60.81
41947;BME280;27638;42.184;24.848;2023-02-13T06:25:40;102013.75;;;3.87;60.57
41947;BME280;27638;42.184;24.848;2023-02-13T06:28:05;102014.09;;;4.00;59.84
41947;BME280;27638;42.184;24.848;2023-02-13T06:30:31;102010.34;;;4.05;60.04
41947;BME280;27638;42.184;24.848;2023-02-13T06:32:57;102007.78;;;4.04;60.25
41947;BME280;27638;42.184;24.848;2023-02-13T06:35:23;102010.16;;;4.10;60.36
41947;BME280;27638;42.184;24.848;2023-02-13T06:37:48;102011.38;;;4.23;60.05
41947;BME280;27638;42.184;24.848;2023-02-13T06:40:14;102019.03;;;4.28;60.06
41947;BME280;27638;42.184;24.848;2023-02-13T06:42:44;102016.59;;;4.43;59.95
41947;BME280;27638;42.184;24.848;2023-02-13T06:45:10;102009.09;;;4.55;59.72
41947;BME280;27638;42.184;24.848;2023-02-13T06:47:40;102008.97;;;4.58;59.28
41947;BME280;27638;42.184;24.848;2023-02-13T06:50:06;102010.13;;;4.71;59.30
41947;BME280;27638;42.184;24.848;2023-02-13T06:52:32;102012.63;;;4.93;58.31
41947;BME280;27638;42.184;24.848;2023-02-13T06:54:57;102008.44;;;5.07;57.90
41947;BME280;27638;42.184;24.848;2023-02-13T06:57:23;102005.03;;;5.24;57.41
41947;BME280;27638;42.184;24.848;2023-02-13T06:59:48;102001.97;;;5.33;57.04
41947;BME280;27638;42.184;24.848;2023-02-13T07:02:13;101998.22;;;5.56;56.91
41947;BME280;27638;42.184;24.848;2023-02-13T07:04:39;102000.88;;;5.73;56.39
41947;BME280;27638;42.184;24.848;2023-02-13T07:07:05;101991.75;;;5.63;57.09
41947;BME280;27638;42.184;24.848;2023-02-13T07:09:31;101991.19;;;5.57;57.46
41947;BME280;27638;42.184;24.848;2023-02-13T07:11:56;101996.78;;;5.68;57.36
41947;BME280;27638;42.184;24.848;2023-02-13T07:14:22;102003.81;;;5.31;58.36
41947;BME280;27638;42.184;24.848;2023-02-13T07:16:48;102008.00;;;4.98;60.42
41947;BME280;27638;42.184;24.848;2023-02-13T07:19:13;102007.16;;;4.97;59.78
41947;BME280;27638;42.184;24.848;2023-02-13T07:21:38;101997.84;;;5.09;59.73
41947;BME280;27638;42.184;24.848;2023-02-13T07:24:04;102003.34;;;5.23;59.47
41947;BME280;27638;42.184;24.848;2023-02-13T07:26:30;101997.34;;;5.20;60.33
41947;BME280;27638;42.184;24.848;2023-02-13T07:28:55;101997.63;;;5.32;59.56
41947;BME280;27638;42.184;24.848;2023-02-13T07:31:21;102000.78;;;5.58;58.96
41947;BME280;27638;42.184;24.848;2023-02-13T07:33:49;102004.03;;;5.63;59.15
41947;BME280;27638;42.184;24.848;2023-02-13T07:36:15;102013.00;;;5.59;58.84
41947;BME280;27638;42.184;24.848;2023-02-13T07:38:40;102004.28;;;5.75;58.80
41947;BME280;27638;42.184;24.848;2023-02-13T07:41:06;101997.50;;;6.06;57.67
41947;BME280;27638;42.184;24.848;2023-02-13T07:43:32;101997.22;;;6.29;57.43
41947;BME280;27638;42.184;24.848;2023-02-13T07:45:59;101994.91;;;6.56;56.72
41947;BME280;27638;42.184;24.848;2023-02-13T07:48:24;102006.41;;;6.71;55.64
41947;BME280;27638;42.184;24.848;2023-02-13T07:50:54;102003.84;;;6.69;56.05
41947;BME280;27638;42.184;24.848;2023-02-13T07:53:25;102001.09;;;6.88;55.20
41947;BME280;27638;42.184;24.848;2023-02-13T07:55:50;101996.06;;;6.99;55.08
41947;BME280;27638;42.184;24.848;2023-02-13T07:58:16;101986.63;;;6.80;55.51
41947;BME280;27638;42.184;24.848;2023-02-13T08:00:41;101986.97;;;7.05;55.05
41947;BME280;27638;42.184;24.848;2023-02-13T08:03:08;101992.75;;;7.27;54.53
41947;BME280;27638;42.184;24.848;2023-02-13T08:05:34;101988.13;;;7.32;54.33
41947;BME280;27638;42.184;24.848;2023-02-13T08:08:00;101983.31;;;7.55;53.65
41947;BME280;27638;42.184;24.848;2023-02-13T08:10:25;101985.75;;;7.74;52.64
41947;BME280;27638;42.184;24.848;2023-02-13T08:13:09;101991.63;;;7.93;51.75
41947;BME280;27638;42.184;24.848;2023-02-13T08:15:36;101986.66;;;8.02;51.74
41947;BME280;27638;42.184;24.848;2023-02-13T08:18:01;101987.44;;;8.19;51.85
41947;BME280;27638;42.184;24.848;2023-02-13T08:20:26;101978.09;;;8.13;51.73
41947;BME280;27638;42.184;24.848;2023-02-13T08:22:53;101981.53;;;8.29;51.34
41947;BME280;27638;42.184;24.848;2023-02-13T08:25:18;101984.16;;;8.29;51.01
41947;BME280;27638;42.184;24.848;2023-02-13T08:27:45;101971.72;;;8.31;51.27
41947;BME280;27638;42.184;24.848;2023-02-13T08:30:10;101982.75;;;8.24;50.85
41947;BME280;27638;42.184;24.848;2023-02-13T08:32:37;101980.94;;;8.24;51.09
41947;BME280;27638;42.184;24.848;2023-02-13T08:35:02;101984.34;;;8.26;51.52
41947;BME280;27638;42.184;24.848;2023-02-13T08:37:27;101985.38;;;8.24;50.88
41947;BME280;27638;42.184;24.848;2023-02-13T08:39:53;101984.91;;;8.31;50.94
41947;BME280;27638;42.184;24.848;2023-02-13T08:42:18;101982.28;;;8.31;50.99
41947;BME280;27638;42.184;24.848;2023-02-13T08:44:44;101982.06;;;8.20;50.86
41947;BME280;27638;42.184;24.848;2023-02-13T08:47:09;101977.91;;;7.72;51.84
41947;BME280;27638;42.184;24.848;2023-02-13T08:49:35;101966.47;;;7.87;52.10
41947;BME280;27638;42.184;24.848;2023-02-13T08:52:01;101971.16;;;7.52;52.59
41947;BME280;27638;42.184;24.848;2023-02-13T08:54:26;101962.66;;;7.47;53.11
41947;BME280;27638;42.184;24.848;2023-02-13T08:56:53;101969.81;;;7.45;53.20
41947;BME280;27638;42.184;24.848;2023-02-13T08:59:19;101970.56;;;7.47;53.51
41947;BME280;27638;42.184;24.848;2023-02-13T09:01:45;101959.72;;;7.67;52.69
41947;BME280;27638;42.184;24.848;2023-02-13T09:04:10;101962.34;;;7.97;51.88
41947;BME280;27638;42.184;24.848;2023-02-13T09:06:36;101963.94;;;8.00;51.60
41947;BME280;27638;42.184;24.848;2023-02-13T09:09:03;101965.94;;;8.11;51.83
41947;BME280;27638;42.184;24.848;2023-02-13T09:11:28;101960.94;;;8.06;51.49
41947;BME280;27638;42.184;24.848;2023-02-13T09:13:54;101955.59;;;8.22;51.58
41947;BME280;27638;42.184;24.848;2023-02-13T09:16:20;101953.44;;;8.28;51.15
41947;BME280;27638;42.184;24.848;2023-02-13T09:18:50;101953.59;;;8.11;51.71
41947;BME280;27638;42.184;24.848;2023-02-13T09:21:16;101945.88;;;8.22;50.95
41947;BME280;27638;42.184;24.848;2023-02-13T09:23:42;101936.66;;;8.29;51.14
41947;BME280;27638;42.184;24.848;2023-02-13T09:26:12;101934.72;;;8.33;51.07
41947;BME280;27638;42.184;24.848;2023-02-13T09:28:39;101932.38;;;8.43;50.52
41947;BME280;27638;42.184;24.848;2023-02-13T09:31:16;101928.31;;;8.51;50.15
41947;BME280;27638;42.184;24.848;2023-02-13T09:33:43;101926.81;;;8.33;51.18
41947;BME280;27638;42.184;24.848;2023-02-13T09:36:14;101920.69;;;8.47;50.26
41947;BME280;27638;42.184;24.848;2023-02-13T09:38:40;101919.91;;;8.59;50.77
41947;BME280;27638;42.184;24.848;2023-02-13T09:43:49;101910.13;;;8.47;50.69
41947;BME280;27638;42.184;24.848;2023-02-13T09:46:20;101907.00;;;8.54;50.10
41947;BME280;27638;42.184;24.848;2023-02-13T09:48:50;101903.59;;;8.67;49.40
41947;BME280;27638;42.184;24.848;2023-02-13T09:51:19;101899.34;;;8.64;49.75
41947;BME280;27638;42.184;24.848;2023-02-13T09:53:54;101898.22;;;8.68;50.12
41947;BME280;27638;42.184;24.848;2023-02-13T10:02:22;101881.59;;;8.66;49.69
41947;BME280;27638;42.184;24.848;2023-02-13T10:05:05;101872.84;;;8.66;49.15
41947;BME280;27638;42.184;24.848;2023-02-13T10:07:40;101873.28;;;8.72;49.34
41947;BME280;27638;42.184;24.848;2023-02-13T10:15:17;101858.44;;;8.84;48.87
41947;BME280;27638;42.184;24.848;2023-02-13T10:17:52;101851.88;;;8.77;48.05
41947;BME280;27638;42.184;24.848;2023-02-13T10:26:04;101843.84;;;8.78;48.01
41947;BME280;27638;42.184;24.848;2023-02-13T10:31:07;101830.63;;;9.05;48.24
41947;BME280;27638;42.184;24.848;2023-02-13T10:33:52;101823.38;;;9.21;47.44
41947;BME280;27638;42.184;24.848;2023-02-13T10:36:26;101817.16;;;9.35;46.82
41947;BME280;27638;42.184;24.848;2023-02-13T10:39:12;101821.41;;;9.38;46.64
41947;BME280;27638;42.184;24.848;2023-02-13T10:42:10;101809.72;;;9.27;46.70
41947;BME280;27638;42.184;24.848;2023-02-13T10:47:52;101802.06;;;9.37;47.04
41947;BME280;27638;42.184;24.848;2023-02-13T10:50:25;101798.38;;;9.52;46.46
41947;BME280;27638;42.184;24.848;2023-02-13T11:01:25;101775.03;;;9.19;45.69
41947;BME280;27638;42.184;24.848;2023-02-13T11:04:16;101777.81;;;9.31;46.58
41947;BME280;27638;42.184;24.848;2023-02-13T11:06:54;101761.94;;;9.18;45.83
41947;BME280;27638;42.184;24.848;2023-02-13T11:09:20;101756.34;;;9.35;46.12
41947;BME280;27638;42.184;24.848;2023-02-13T11:11:47;101753.31;;;9.41;46.52
41947;BME280;27638;42.184;24.848;2023-02-13T11:14:23;101735.44;;;9.45;45.63
41947;BME280;27638;42.184;24.848;2023-02-13T11:16:56;101738.59;;;9.37;46.00
41947;BME280;27638;42.184;24.848;2023-02-13T11:19:37;101734.16;;;9.50;45.57
41947;BME280;27638;42.184;24.848;2023-02-13T11:22:15;101730.34;;;9.54;45.06
41947;BME280;27638;42.184;24.848;2023-02-13T11:25:03;101713.00;;;9.50;44.26
41947;BME280;27638;42.184;24.848;2023-02-13T11:27:36;101709.31;;;9.40;45.01
41947;BME280;27638;42.184;24.848;2023-02-13T11:30:51;101713.31;;;9.46;44.79
41947;BME280;27638;42.184;24.848;2023-02-13T11:32:58;101712.34;;;9.59;44.85
41947;BME280;27638;42.184;24.848;2023-02-13T11:35:33;101697.00;;;9.65;44.70
41947;BME280;27638;42.184;24.848;2023-02-13T11:38:22;101702.84;;;9.44;43.40
41947;BME280;27638;42.184;24.848;2023-02-13T11:40:51;101696.91;;;9.53;43.79
41947;BME280;27638;42.184;24.848;2023-02-13T11:46:07;101686.03;;;9.58;43.25
41947;BME280;27638;42.184;24.848;2023-02-13T11:48:35;101682.19;;;9.62;43.77
41947;BME280;27638;42.184;24.848;2023-02-13T11:51:01;101679.25;;;9.54;43.33
41947;BME280;27638;42.184;24.848;2023-02-13T11:53:36;101667.69;;;9.68;42.66
41947;BME280;27638;42.184;24.848;2023-02-13T11:56:14;101668.75;;;9.65;43.44
41947;BME280;27638;42.184;24.848;2023-02-13T11:58:41;101663.03;;;9.71;43.04
41947;BME280;27638;42.184;24.848;2023-02-13T12:03:41;101659.03;;;9.66;41.73
41947;BME280;27638;42.184;24.848;2023-02-13T12:06:11;101657.53;;;9.74;41.63
41947;BME280;27638;42.184;24.848;2023-02-13T12:08:39;101646.16;;;9.85;41.56
41947;BME280;27638;42.184;24.848;2023-02-13T12:11:37;101646.97;;;9.62;42.29
41947;BME280;27638;42.184;24.848;2023-02-13T12:14:09;101642.50;;;9.75;42.82
41947;BME280;27638;42.184;24.848;2023-02-13T12:16:40;101633.09;;;9.71;42.45
41947;BME280;27638;42.184;24.848;2023-02-13T12:19:13;101636.69;;;9.70;42.54
41947;BME280;27638;42.184;24.848;2023-02-13T12:32:16;101624.81;;;9.75;41.59
41947;BME280;27638;42.184;24.848;2023-02-13T12:35:12;101618.84;;;9.84;41.16
41947;BME280;27638;42.184;24.848;2023-02-13T12:46:21;101609.91;;;9.74;41.97
41947;BME280;27638;42.184;24.848;2023-02-13T12:57:50;101597.53;;;9.99;40.26
41947;BME280;27638;42.184;24.848;2023-02-13T13:27:28;101565.16;;;9.95;37.71
41947;BME280;27638;42.184;24.848;2023-02-13T13:30:04;101569.44;;;9.85;37.13
41947;BME280;27638;42.184;24.848;2023-02-13T13:32:31;101561.66;;;9.95;36.88
41947;BME280;27638;42.184;24.848;2023-02-13T13:34:57;101560.75;;;10.07;37.42
41947;BME280;27638;42.184;24.848;2023-02-13T13:37:31;101556.56;;;10.15;37.78
41947;BME280;27638;42.184;24.848;2023-02-13T13:40:38;101555.56;;;10.05;38.55
41947;BME280;27638;42.184;24.848;2023-02-13T13:43:02;101556.28;;;10.07;37.74
41947;BME280;27638;42.184;24.848;2023-02-13T13:50:47;101547.84;;;10.26;36.21
41947;BME280;27638;42.184;24.848;2023-02-13T13:53:15;101549.34;;;10.17;36.85
41947;BME280;27638;42.184;24.848;2023-02-13T13:58:45;101535.84;;;10.33;35.54
41947;BME280;27638;42.184;24.848;2023-02-13T14:06:17;101538.34;;;10.23;35.71
41947;BME280;27638;42.184;24.848;2023-02-13T14:13:57;101526.81;;;10.36;36.85
41947;BME280;27638;42.184;24.848;2023-02-13T14:16:56;101527.88;;;10.33;37.04
41947;BME280;27638;42.184;24.848;2023-02-13T14:19:29;101526.19;;;9.97;36.62
41947;BME280;27638;42.184;24.848;2023-02-13T14:24:49;101527.78;;;10.11;36.96
41947;BME280;27638;42.184;24.848;2023-02-13T14:27:23;101526.59;;;10.15;37.80
41947;BME280;27638;42.184;24.848;2023-02-13T14:29:49;101522.13;;;10.04;37.25
41947;BME280;27638;42.184;24.848;2023-02-13T14:32:17;101520.94;;;10.08;37.28
41947;BME280;27638;42.184;24.848;2023-02-13T14:34:55;101522.31;;;9.90;37.56
41947;BME280;27638;42.184;24.848;2023-02-13T14:37:31;101518.59;;;9.92;37.62
41947;BME280;27638;42.184;24.848;2023-02-13T14:40:26;101522.47;;;10.00;36.94
41947;BME280;27638;42.184;24.848;2023-02-13T14:45:52;101512.28;;;9.82;37.92
41947;BME280;27638;42.184;24.848;2023-02-13T14:48:21;101514.72;;;9.85;38.78
41947;BME280;27638;42.184;24.848;2023-02-13T14:50:51;101506.09;;;9.95;38.06
41947;BME280;27638;42.184;24.848;2023-02-13T14:53:22;101509.63;;;10.06;37.74
41947;BME280;27638;42.184;24.848;2023-02-13T14:55:55;101505.94;;;9.85;37.28
41947;BME280;27638;42.184;24.848;2023-02-13T14:58:34;101507.28;;;9.90;37.57
41947;BME280;27638;42.184;24.848;2023-02-13T15:01:06;101504.06;;;9.98;37.71
41947;BME280;27638;42.184;24.848;2023-02-13T15:03:53;101494.31;;;9.99;37.00
41947;BME280;27638;42.184;24.848;2023-02-13T15:06:25;101504.94;;;10.10;37.53
41947;BME280;27638;42.184;24.848;2023-02-13T15:08:52;101504.09;;;10.09;38.48
41947;BME280;27638;42.184;24.848;2023-02-13T15:11:35;101500.44;;;10.23;37.64
41947;BME280;27638;42.184;24.848;2023-02-13T15:16:44;101497.59;;;10.13;38.57
41947;BME280;27638;42.184;24.848;2023-02-13T15:19:16;101502.28;;;10.10;39.64
41947;BME280;27638;42.184;24.848;2023-02-13T15:21:53;101500.00;;;10.05;39.68
41947;BME280;27638;42.184;24.848;2023-02-13T15:24:20;101497.38;;;10.16;39.60
41947;BME280;27638;42.184;24.848;2023-02-13T15:26:58;101491.13;;;10.17;38.12
41947;BME280;27638;42.184;24.848;2023-02-13T15:29:24;101493.50;;;10.09;38.26
41947;BME280;27638;42.184;24.848;2023-02-13T15:31:49;101490.78;;;9.87;38.49
41947;BME280;27638;42.184;24.848;2023-02-13T15:34:24;101489.84;;;9.88;38.55
41947;BME280;27638;42.184;24.848;2023-02-13T15:36:51;101491.16;;;9.93;39.14
41947;BME280;27638;42.184;24.848;2023-02-13T15:39:22;101494.19;;;10.00;38.77
41947;BME280;27638;42.184;24.848;2023-02-13T15:41:51;101490.25;;;10.06;38.52
41947;BME280;27638;42.184;24.848;2023-02-13T15:44:24;101488.31;;;10.08;38.19
41947;BME280;27638;42.184;24.848;2023-02-13T15:46:51;101477.63;;;10.09;37.96
41947;BME280;27638;42.184;24.848;2023-02-13T15:49:20;101484.47;;;10.12;38.53